ADDS METAR Data INFO
IDs: Format: Raw Decoded Include TAF

Data at: 1633 UTC 22 Jul 2017

KFWS 221552Z 19005KT 10SM CLR 33/22 A2998
KFWS 221452Z 19007KT 10SM CLR 32/22 A2998
KFWS 221349Z 18010KT 10SM CLR 29/22 A2998
KFWS 221250Z 19009KT 10SM CLR 27/22 A2996
KFWS 221149Z 16005KT 10SM CLR 25/22 A2995
KFWS 221135Z AUTO 17003KT 10SM CLR 25/22 A2995 RMK AO2 T02480215
KFWS 221115Z AUTO 17003KT 10SM CLR 25/22 A2995 RMK AO2 T02500215
KFWS 221055Z AUTO 19004KT 10SM CLR 25/22 A2995 RMK AO2 T02540215
KFWS 221035Z AUTO 19005KT 10SM CLR 25/22 A2994 RMK AO2 T02530215
KFWS 221015Z AUTO 17004KT 10SM CLR 25/21 A2995 RMK AO2 T02540214
KFWS 220955Z AUTO 17004KT 10SM CLR 26/21 A2994 RMK AO2 T02560214
KFWS 220935Z AUTO 17005KT 10SM CLR 26/21 A2994 RMK AO2 T02610213
KFWS 220915Z AUTO 17005KT 10SM CLR 26/21 A2994 RMK AO2 T02600211
KFWS 220855Z AUTO 17005KT 10SM CLR 26/21 A2995 RMK AO2 T02610210
KFWS 220835Z AUTO 17005KT 10SM CLR 27/21 A2995 RMK AO2 T02670212
KFWS 220815Z AUTO 16005KT 10SM CLR 27/21 A2995 RMK AO2 T02670210
KFWS 220755Z AUTO 17005KT 10SM CLR 27/21 A2995 RMK AO2 T02680208
KFWS 220735Z AUTO 17005KT 10SM CLR 27/21 A2995 RMK AO2 T02720207
KFWS 220715Z AUTO 16006KT 10SM CLR 27/21 A2996 RMK AO2 T02740207
KFWS 220655Z AUTO 17005KT 10SM CLR 28/21 A2996 RMK AO2 T02780205
KFWS 220635Z AUTO 17006KT 10SM CLR 28/21 A2996 RMK AO2 T02820206
KFWS 220615Z AUTO 16007KT 10SM CLR 28/21 A2996 RMK AO2 T02820206
KFWS 220555Z AUTO 16007KT 10SM CLR 28/21 A2996 RMK AO2 T02820206 10359 20279 403850243
KFWS 220535Z AUTO 15004KT 10SM CLR 28/20 A2997 RMK AO2 T02810203
KFWS 220515Z AUTO 14006KT 10SM CLR 28/20 A2997 RMK AO2 T02820200
KFWS 220455Z AUTO 14005KT 10SM CLR 28/20 A2997 RMK AO2 T02840200
KFWS 220435Z AUTO 14007KT 10SM CLR 29/20 A2997 RMK AO2 T02870198
KFWS 220415Z AUTO 14007KT 10SM CLR 29/20 A2997 RMK AO2 T02920197
KFWS 220355Z AUTO 14006KT 10SM CLR 30/20 A2997 RMK AO2 T02970196
KFWS 220335Z AUTO 14008KT 10SM CLR 30/20 A2997 RMK AO2 T03020195
KFWS 220315Z AUTO 14008KT 10SM CLR 31/20 A2996 RMK AO2 T03070195
KFWS 220255Z AUTO 14007KT 10SM CLR 31/20 A2995 RMK AO2 T03110195
KFWS 220235Z AUTO 14007KT 10SM CLR 32/20 A2994 RMK AO2 T03150198
KFWS 220215Z AUTO 13008KT 10SM CLR 32/20 A2993 RMK AO2 T03160198
KFWS 220155Z AUTO 14008KT 10SM CLR 32/20 A2992 RMK AO2 T03240200
KFWS 220135Z AUTO 14007KT 7SM CLR 33/19 A2992 RMK AO2 T03260193
KFWS 220115Z AUTO 14005KT 7SM CLR 33/19 A2991 RMK AO2 T03270186
KFWS 220055Z AUTO 14005KT 7SM CLR 34/18 A2991 RMK AO2 T03380182
KFWS 212350Z 13007KT 10SM FEW065 36/18 A2991
KFWS 212249Z 16005KT 10SM SCT065 37/17 A2992
KFWS 212150Z 14006KT 10SM SCT065 38/19 A2994
KFWS 212050Z 13005KT 10SM SCT060 38/19 A2996
KFWS 211949Z 13007KT 10SM SCT060 37/19 A2998
KFWS 211852Z 15008KT 10SM SCT055 SCT065 37/20 A3001
KFWS 211746Z 18004KT 10SM SCT090 36/20 A3003
KFWS 211646Z 19006KT 10SM SCT080 SCT090 35/21 A3004
KFWS 211546Z 21007KT 10SM SCT080 33/21 A3005
KFWS 211446Z 18006KT 10SM SCT080 32/22 A3005
KFWS 211346Z 17005KT 10SM CLR 29/22 A3005
KFWS 211246Z 15004KT 10SM CLR 27/22 A3004
KFWS 211146Z 00000KT 10SM CLR 24/22 A3003
KFWS 211135Z AUTO 00000KT 10SM CLR 25/22 A3003 RMK AO2 T02480219
KFWS 211115Z AUTO 16003KT 10SM CLR 25/22 A3003 RMK AO2 T02480216
KFWS 211055Z AUTO 16003KT 10SM CLR 25/22 A3002 RMK AO2 T02520217
KFWS 211035Z AUTO 16003KT 10SM CLR 26/22 A3002 RMK AO2 T02550216
KFWS 211015Z AUTO 17004KT 10SM CLR 26/22 A3000 RMK AO2 T02560216
KFWS 210955Z AUTO 16003KT 10SM CLR 26/22 A3001 RMK AO2 T02590215
KFWS 210935Z AUTO 16004KT 10SM CLR 26/22 A3001 RMK AO2 T02610215
KFWS 210915Z AUTO 17004KT 10SM CLR 27/22 A3001 RMK AO2 T02650215
KFWS 210855Z AUTO 17005KT 10SM CLR 27/21 A3001 RMK AO2 T02670212
KFWS 210835Z AUTO 17005KT 10SM CLR 27/21 A3002 RMK AO2 T02680210
KFWS 210815Z AUTO 17005KT 10SM CLR 27/21 A3002 RMK AO2 T02720210
KFWS 210755Z AUTO 17006KT 10SM CLR 28/21 A3002 RMK AO2 T02750209
KFWS 210735Z AUTO 17007KT 10SM CLR 28/21 A3002 RMK AO2 T02770208
KFWS 210715Z AUTO 16006KT 10SM CLR 28/21 A3003 RMK AO2 T02760210
KFWS 210655Z AUTO 17004KT 10SM CLR 27/21 A3003 RMK AO2 T02720208
KFWS 210635Z AUTO 15003KT 10SM CLR 27/21 A3003 RMK AO2 T02720209
KFWS 210615Z AUTO 14004KT 10SM CLR 28/21 A3003 RMK AO2 T02750211
KFWS 210555Z AUTO 15004KT 10SM CLR 28/21 A3004 RMK AO2 T02770209 10364 20277 403790248
KFWS 210535Z AUTO 14004KT 10SM CLR 28/21 A3004 RMK AO2 T02780210
KFWS 210515Z AUTO 14005KT 10SM CLR 28/21 A3004 RMK AO2 T02820210
KFWS 210455Z AUTO 14005KT 10SM CLR 29/21 A3004 RMK AO2 T02870210
KFWS 210435Z AUTO 15007KT 10SM CLR 29/21 A3004 RMK AO2 T02900210